Aviation Digital Data Service (ADDS)

Output produced by METARs form (1111 UTC 24 April 2017)
found at http://www.aviationweather.gov/adds/metars/
 
OLBA 241100Z 27007KT 230V300 8000 SCT023 20/09 Q1020 NOSIG
TAF OLBA 241000Z 2412/2518 27010KT 230V300 8000 SCT023 
     BECMG 2418/2421 VRB05KT 
     BECMG 2506/2508 30010KT 270V330 9999 FEW026